sensor_id;sensor_type;location;lat;lon;timestamp;P1;durP1;ratioP1;P2;durP2;ratioP2
5678;SDS011;2862;52.560;13.566;2023-11-21T00:05:10;36.70;;;13.53;;
5678;SDS011;2862;52.560;13.566;2023-11-21T00:15:17;38.40;;;15.20;;
5678;SDS011;2862;52.560;13.566;2023-11-21T00:25:20;54.17;;;18.40;;
5678;SDS011;2862;52.560;13.566;2023-11-21T00:35:24;59.50;;;23.10;;
5678;SDS011;2862;52.560;13.566;2023-11-21T00:45:28;63.83;;;23.17;;
5678;SDS011;2862;52.560;13.566;2023-11-21T00:55:32;69.97;;;22.97;;
5678;SDS011;2862;52.560;13.566;2023-11-21T01:05:36;66.20;;;21.70;;
5678;SDS011;2862;52.560;13.566;2023-11-21T01:15:40;69.50;;;23.73;;
5678;SDS011;2862;52.560;13.566;2023-11-21T01:25:44;83.13;;;24.17;;
5678;SDS011;2862;52.560;13.566;2023-11-21T01:35:49;91.77;;;28.17;;
5678;SDS011;2862;52.560;13.566;2023-11-21T01:45:53;97.53;;;28.10;;
5678;SDS011;2862;52.560;13.566;2023-11-21T01:55:59;89.60;;;25.60;;
5678;SDS011;2862;52.560;13.566;2023-11-21T02:06:03;98.50;;;28.17;;
5678;SDS011;2862;52.560;13.566;2023-11-21T02:16:08;73.50;;;21.67;;
5678;SDS011;2862;52.560;13.566;2023-11-21T02:26:13;60.80;;;18.67;;
5678;SDS011;2862;52.560;13.566;2023-11-21T02:36:16;39.53;;;12.63;;
5678;SDS011;2862;52.560;13.566;2023-11-21T02:46:21;38.00;;;12.20;;
5678;SDS011;2862;52.560;13.566;2023-11-21T02:56:24;33.57;;;11.47;;
5678;SDS011;2862;52.560;13.566;2023-11-21T03:06:29;27.10;;;9.20;;
5678;SDS011;2862;52.560;13.566;2023-11-21T03:16:33;27.87;;;10.37;;
5678;SDS011;2862;52.560;13.566;2023-11-21T03:26:44;26.33;;;8.50;;
5678;SDS011;2862;52.560;13.566;2023-11-21T03:36:48;26.77;;;8.77;;
5678;SDS011;2862;52.560;13.566;2023-11-21T03:46:52;29.70;;;8.00;;
5678;SDS011;2862;52.560;13.566;2023-11-21T03:56:55;23.77;;;7.10;;
5678;SDS011;2862;52.560;13.566;2023-11-21T04:06:59;20.20;;;6.10;;
5678;SDS011;2862;52.560;13.566;2023-11-21T04:17:02;24.70;;;6.93;;
5678;SDS011;2862;52.560;13.566;2023-11-21T04:27:07;19.40;;;4.10;;
5678;SDS011;2862;52.560;13.566;2023-11-21T04:37:10;17.80;;;3.57;;
5678;SDS011;2862;52.560;13.566;2023-11-21T04:47:15;16.10;;;3.10;;
5678;SDS011;2862;52.560;13.566;2023-11-21T04:57:18;18.70;;;4.60;;
5678;SDS011;2862;52.560;13.566;2023-11-21T05:07:22;23.53;;;5.37;;
5678;SDS011;2862;52.560;13.566;2023-11-21T05:17:25;18.40;;;4.10;;
5678;SDS011;2862;52.560;13.566;2023-11-21T05:27:29;20.40;;;4.30;;
5678;SDS011;2862;52.560;13.566;2023-11-21T05:37:32;18.37;;;4.13;;
5678;SDS011;2862;52.560;13.566;2023-11-21T05:47:37;19.83;;;3.70;;
5678;SDS011;2862;52.560;13.566;2023-11-21T05:57:42;16.50;;;2.87;;
5678;SDS011;2862;52.560;13.566;2023-11-21T06:07:47;18.87;;;4.23;;
5678;SDS011;2862;52.560;13.566;2023-11-21T06:17:51;17.97;;;4.57;;
5678;SDS011;2862;52.560;13.566;2023-11-21T06:27:56;19.27;;;4.23;;
5678;SDS011;2862;52.560;13.566;2023-11-21T06:37:59;19.40;;;4.27;;
5678;SDS011;2862;52.560;13.566;2023-11-21T06:48:03;19.33;;;4.50;;
5678;SDS011;2862;52.560;13.566;2023-11-21T06:58:06;16.87;;;3.60;;
5678;SDS011;2862;52.560;13.566;2023-11-21T07:08:11;16.90;;;3.37;;
5678;SDS011;2862;52.560;13.566;2023-11-21T07:18:14;18.13;;;3.53;;
5678;SDS011;2862;52.560;13.566;2023-11-21T07:28:19;15.90;;;2.83;;
5678;SDS011;2862;52.560;13.566;2023-11-21T07:38:22;24.90;;;5.13;;
5678;SDS011;2862;52.560;13.566;2023-11-21T07:48:26;31.73;;;6.27;;
5678;SDS011;2862;52.560;13.566;2023-11-21T07:58:29;29.20;;;6.50;;
5678;SDS011;2862;52.560;13.566;2023-11-21T08:08:34;39.80;;;7.93;;
5678;SDS011;2862;52.560;13.566;2023-11-21T08:18:36;47.13;;;9.47;;
5678;SDS011;2862;52.560;13.566;2023-11-21T08:28:43;45.73;;;10.00;;
5678;SDS011;2862;52.560;13.566;2023-11-21T08:38:46;47.07;;;11.60;;
5678;SDS011;2862;52.560;13.566;2023-11-21T08:48:51;26.57;;;5.80;;
5678;SDS011;2862;52.560;13.566;2023-11-21T08:58:54;20.80;;;2.90;;
5678;SDS011;2862;52.560;13.566;2023-11-21T09:09:00;16.13;;;1.67;;
5678;SDS011;2862;52.560;13.566;2023-11-21T09:19:03;19.17;;;1.80;;
5678;SDS011;2862;52.560;13.566;2023-11-21T09:29:08;13.63;;;1.20;;
5678;SDS011;2862;52.560;13.566;2023-11-21T09:39:11;15.07;;;1.03;;
5678;SDS011;2862;52.560;13.566;2023-11-21T09:49:18;11.43;;;0.77;;
5678;SDS011;2862;52.560;13.566;2023-11-21T09:59:27;9.80;;;0.40;;
5678;SDS011;2862;52.560;13.566;2023-11-21T10:09:35;11.67;;;0.50;;
5678;SDS011;2862;52.560;13.566;2023-11-21T10:19:39;11.60;;;0.50;;
5678;SDS011;2862;52.560;13.566;2023-11-21T10:29:44;10.73;;;0.50;;
5678;SDS011;2862;52.560;13.566;2023-11-21T10:39:47;13.27;;;0.67;;
5678;SDS011;2862;52.560;13.566;2023-11-21T10:49:52;11.60;;;1.13;;
5678;SDS011;2862;52.560;13.566;2023-11-21T10:59:55;13.63;;;0.90;;
5678;SDS011;2862;52.560;13.566;2023-11-21T11:10:00;12.10;;;1.37;;
5678;SDS011;2862;52.560;13.566;2023-11-21T11:20:07;15.60;;;2.00;;
5678;SDS011;2862;52.560;13.566;2023-11-21T11:30:16;17.97;;;3.70;;
5678;SDS011;2862;52.560;13.566;2023-11-21T11:40:39;12.40;;;0.90;;
5678;SDS011;2862;52.560;13.566;2023-11-21T12:01:06;13.37;;;1.53;;
5678;SDS011;2862;52.560;13.566;2023-11-21T12:11:11;14.23;;;1.37;;
5678;SDS011;2862;52.560;13.566;2023-11-21T12:21:15;14.40;;;2.20;;
5678;SDS011;2862;52.560;13.566;2023-11-21T12:31:19;12.07;;;1.00;;
5678;SDS011;2862;52.560;13.566;2023-11-21T12:41:22;12.80;;;1.23;;
5678;SDS011;2862;52.560;13.566;2023-11-21T12:51:26;12.43;;;1.17;;
5678;SDS011;2862;52.560;13.566;2023-11-21T13:01:31;14.40;;;2.17;;
5678;SDS011;2862;52.560;13.566;2023-11-21T13:11:36;15.10;;;2.97;;
5678;SDS011;2862;52.560;13.566;2023-11-21T13:21:38;15.70;;;3.23;;
5678;SDS011;2862;52.560;13.566;2023-11-21T13:31:43;16.17;;;3.20;;
5678;SDS011;2862;52.560;13.566;2023-11-21T13:41:46;18.40;;;4.47;;
5678;SDS011;2862;52.560;13.566;2023-11-21T13:51:57;20.77;;;5.93;;
5678;SDS011;2862;52.560;13.566;2023-11-21T14:02:02;23.23;;;7.40;;
5678;SDS011;2862;52.560;13.566;2023-11-21T14:12:20;26.10;;;9.60;;
5678;SDS011;2862;52.560;13.566;2023-11-21T14:22:23;32.40;;;13.13;;
5678;SDS011;2862;52.560;13.566;2023-11-21T14:32:28;40.17;;;16.23;;
5678;SDS011;2862;52.560;13.566;2023-11-21T14:42:32;36.40;;;15.43;;
5678;SDS011;2862;52.560;13.566;2023-11-21T14:52:39;41.37;;;16.50;;
5678;SDS011;2862;52.560;13.566;2023-11-21T15:02:56;40.40;;;15.83;;
5678;SDS011;2862;52.560;13.566;2023-11-21T15:13:01;32.80;;;12.70;;
5678;SDS011;2862;52.560;13.566;2023-11-21T15:23:05;31.30;;;12.43;;
5678;SDS011;2862;52.560;13.566;2023-11-21T15:33:11;28.17;;;10.63;;
5678;SDS011;2862;52.560;13.566;2023-11-21T15:43:14;26.63;;;9.43;;
5678;SDS011;2862;52.560;13.566;2023-11-21T15:53:20;25.93;;;9.30;;
5678;SDS011;2862;52.560;13.566;2023-11-21T16:03:23;25.67;;;8.27;;
5678;SDS011;2862;52.560;13.566;2023-11-21T16:13:30;22.43;;;6.73;;
5678;SDS011;2862;52.560;13.566;2023-11-21T16:23:34;23.30;;;7.53;;
5678;SDS011;2862;52.560;13.566;2023-11-21T16:33:39;25.57;;;7.63;;
5678;SDS011;2862;52.560;13.566;2023-11-21T16:43:43;26.50;;;7.60;;
5678;SDS011;2862;52.560;13.566;2023-11-21T16:53:47;25.13;;;7.43;;
5678;SDS011;2862;52.560;13.566;2023-11-21T17:03:50;25.73;;;8.10;;
5678;SDS011;2862;52.560;13.566;2023-11-21T17:13:55;26.63;;;8.30;;
5678;SDS011;2862;52.560;13.566;2023-11-21T17:23:58;26.30;;;8.43;;
5678;SDS011;2862;52.560;13.566;2023-11-21T17:34:03;24.03;;;7.70;;
5678;SDS011;2862;52.560;13.566;2023-11-21T17:44:06;23.47;;;6.80;;
5678;SDS011;2862;52.560;13.566;2023-11-21T17:54:10;23.93;;;7.33;;
5678;SDS011;2862;52.560;13.566;2023-11-21T18:04:14;25.10;;;7.47;;
5678;SDS011;2862;52.560;13.566;2023-11-21T18:14:18;19.97;;;6.10;;
5678;SDS011;2862;52.560;13.566;2023-11-21T18:24:21;23.00;;;7.70;;
5678;SDS011;2862;52.560;13.566;2023-11-21T18:34:25;25.43;;;8.27;;
5678;SDS011;2862;52.560;13.566;2023-11-21T18:44:28;26.00;;;7.47;;
5678;SDS011;2862;52.560;13.566;2023-11-21T18:54:33;28.17;;;7.63;;
5678;SDS011;2862;52.560;13.566;2023-11-21T19:04:39;19.50;;;5.20;;
5678;SDS011;2862;52.560;13.566;2023-11-21T19:14:47;22.70;;;5.57;;
5678;SDS011;2862;52.560;13.566;2023-11-21T19:24:51;21.77;;;5.20;;
5678;SDS011;2862;52.560;13.566;2023-11-21T19:34:55;21.60;;;4.97;;
5678;SDS011;2862;52.560;13.566;2023-11-21T19:44:58;19.70;;;4.50;;
5678;SDS011;2862;52.560;13.566;2023-11-21T19:55:05;24.87;;;5.20;;
5678;SDS011;2862;52.560;13.566;2023-11-21T20:05:12;17.77;;;4.13;;
5678;SDS011;2862;52.560;13.566;2023-11-21T20:15:18;19.67;;;5.43;;
5678;SDS011;2862;52.560;13.566;2023-11-21T20:25:20;21.87;;;4.30;;
5678;SDS011;2862;52.560;13.566;2023-11-21T20:35:24;21.43;;;3.70;;
5678;SDS011;2862;52.560;13.566;2023-11-21T20:45:28;20.67;;;5.20;;
5678;SDS011;2862;52.560;13.566;2023-11-21T20:55:32;22.87;;;5.60;;
5678;SDS011;2862;52.560;13.566;2023-11-21T21:05:35;20.93;;;4.87;;
5678;SDS011;2862;52.560;13.566;2023-11-21T21:15:40;22.00;;;5.30;;
5678;SDS011;2862;52.560;13.566;2023-11-21T21:25:43;21.33;;;5.20;;
5678;SDS011;2862;52.560;13.566;2023-11-21T21:35:47;19.80;;;4.03;;
5678;SDS011;2862;52.560;13.566;2023-11-21T21:45:50;22.67;;;3.50;;
5678;SDS011;2862;52.560;13.566;2023-11-21T21:55:55;17.53;;;3.90;;
5678;SDS011;2862;52.560;13.566;2023-11-21T22:05:58;17.67;;;4.13;;
5678;SDS011;2862;52.560;13.566;2023-11-21T22:16:04;13.83;;;2.30;;
5678;SDS011;2862;52.560;13.566;2023-11-21T22:26:07;17.47;;;2.80;;
5678;SDS011;2862;52.560;13.566;2023-11-21T22:36:13;15.83;;;2.43;;
5678;SDS011;2862;52.560;13.566;2023-11-21T22:46:17;23.10;;;4.93;;
5678;SDS011;2862;52.560;13.566;2023-11-21T22:56:21;17.03;;;2.93;;
5678;SDS011;2862;52.560;13.566;2023-11-21T23:06:25;18.73;;;4.60;;
5678;SDS011;2862;52.560;13.566;2023-11-21T23:16:31;18.60;;;3.30;;
5678;SDS011;2862;52.560;13.566;2023-11-21T23:26:34;23.20;;;3.60;;
5678;SDS011;2862;52.560;13.566;2023-11-21T23:36:39;19.30;;;3.87;;
5678;SDS011;2862;52.560;13.566;2023-11-21T23:46:47;17.63;;;3.80;;
5678;SDS011;2862;52.560;13.566;2023-11-21T23:57:00;17.40;;;3.50;;
